sensor_id;sensor_type;location;lat;lon;timestamp;P1;durP1;ratioP1;P2;durP2;ratioP2
77220;SDS011;66217;50.004;8.266;2023-05-16T00:01:45;34.33;;;19.40;;
77220;SDS011;66217;50.004;8.266;2023-05-16T00:04:11;36.30;;;20.10;;
77220;SDS011;66217;50.004;8.266;2023-05-16T00:06:37;35.63;;;18.83;;
77220;SDS011;66217;50.004;8.266;2023-05-16T00:09:02;31.10;;;18.05;;
77220;SDS011;66217;50.004;8.266;2023-05-16T00:11:27;32.17;;;19.30;;
77220;SDS011;66217;50.004;8.266;2023-05-16T00:13:53;28.73;;;18.58;;
77220;SDS011;66217;50.004;8.266;2023-05-16T00:16:18;34.03;;;19.15;;
77220;SDS011;66217;50.004;8.266;2023-05-16T00:18:45;28.25;;;18.17;;
77220;SDS011;66217;50.004;8.266;2023-05-16T00:21:11;28.63;;;17.35;;
77220;SDS011;66217;50.004;8.266;2023-05-16T00:23:36;29.10;;;18.50;;
77220;SDS011;66217;50.004;8.266;2023-05-16T00:26:02;29.42;;;18.90;;
77220;SDS011;66217;50.004;8.266;2023-05-16T00:28:28;32.25;;;18.52;;
77220;SDS011;66217;50.004;8.266;2023-05-16T00:30:56;40.20;;;18.92;;
77220;SDS011;66217;50.004;8.266;2023-05-16T00:33:21;29.10;;;17.95;;
77220;SDS011;66217;50.004;8.266;2023-05-16T00:35:47;27.90;;;16.75;;
77220;SDS011;66217;50.004;8.266;2023-05-16T00:38:13;28.90;;;17.20;;
77220;SDS011;66217;50.004;8.266;2023-05-16T00:40:38;31.92;;;17.48;;
77220;SDS011;66217;50.004;8.266;2023-05-16T00:43:05;27.83;;;17.23;;
77220;SDS011;66217;50.004;8.266;2023-05-16T00:45:30;28.75;;;17.25;;
77220;SDS011;66217;50.004;8.266;2023-05-16T00:47:55;28.30;;;16.58;;
77220;SDS011;66217;50.004;8.266;2023-05-16T00:50:21;30.45;;;17.73;;
77220;SDS011;66217;50.004;8.266;2023-05-16T00:52:47;29.58;;;17.05;;
77220;SDS011;66217;50.004;8.266;2023-05-16T00:55:13;28.25;;;15.60;;
77220;SDS011;66217;50.004;8.266;2023-05-16T00:57:39;32.25;;;16.27;;
77220;SDS011;66217;50.004;8.266;2023-05-16T01:00:05;27.30;;;16.33;;
77220;SDS011;66217;50.004;8.266;2023-05-16T01:02:34;23.48;;;14.50;;
77220;SDS011;66217;50.004;8.266;2023-05-16T01:05:00;30.70;;;15.88;;
77220;SDS011;66217;50.004;8.266;2023-05-16T01:07:27;26.30;;;15.38;;
77220;SDS011;66217;50.004;8.266;2023-05-16T01:09:53;25.50;;;14.45;;
77220;SDS011;66217;50.004;8.266;2023-05-16T01:20:36;24.05;;;15.10;;
77220;SDS011;66217;50.004;8.266;2023-05-16T01:26:18;25.60;;;15.32;;
77220;SDS011;66217;50.004;8.266;2023-05-16T01:28:46;31.70;;;15.07;;
77220;SDS011;66217;50.004;8.266;2023-05-16T01:31:14;25.67;;;14.63;;
77220;SDS011;66217;50.004;8.266;2023-05-16T01:33:40;25.98;;;14.27;;
77220;SDS011;66217;50.004;8.266;2023-05-16T01:41:12;23.58;;;14.98;;
77220;SDS011;66217;50.004;8.266;2023-05-16T01:43:42;24.95;;;14.13;;
77220;SDS011;66217;50.004;8.266;2023-05-16T01:46:13;21.42;;;13.02;;
77220;SDS011;66217;50.004;8.266;2023-05-16T01:48:46;24.75;;;14.32;;
77220;SDS011;66217;50.004;8.266;2023-05-16T01:51:17;29.40;;;14.90;;
77220;SDS011;66217;50.004;8.266;2023-05-16T01:53:46;26.17;;;14.85;;
77220;SDS011;66217;50.004;8.266;2023-05-16T01:56:14;25.73;;;13.88;;
77220;SDS011;66217;50.004;8.266;2023-05-16T01:58:40;23.23;;;12.88;;
77220;SDS011;66217;50.004;8.266;2023-05-16T02:01:06;27.00;;;14.95;;
77220;SDS011;66217;50.004;8.266;2023-05-16T02:03:32;27.95;;;14.95;;
77220;SDS011;66217;50.004;8.266;2023-05-16T02:05:58;27.02;;;15.65;;
77220;SDS011;66217;50.004;8.266;2023-05-16T02:08:24;24.38;;;14.50;;
77220;SDS011;66217;50.004;8.266;2023-05-16T02:10:50;28.77;;;14.63;;
77220;SDS011;66217;50.004;8.266;2023-05-16T02:13:16;28.45;;;15.15;;
77220;SDS011;66217;50.004;8.266;2023-05-16T02:15:42;30.35;;;15.77;;
77220;SDS011;66217;50.004;8.266;2023-05-16T02:18:07;30.33;;;14.80;;
77220;SDS011;66217;50.004;8.266;2023-05-16T02:20:33;24.55;;;13.13;;
77220;SDS011;66217;50.004;8.266;2023-05-16T02:22:59;26.30;;;13.15;;
77220;SDS011;66217;50.004;8.266;2023-05-16T02:25:25;24.40;;;13.15;;
77220;SDS011;66217;50.004;8.266;2023-05-16T02:27:50;29.13;;;14.82;;
77220;SDS011;66217;50.004;8.266;2023-05-16T02:30:16;28.80;;;14.88;;
77220;SDS011;66217;50.004;8.266;2023-05-16T02:32:41;29.15;;;13.82;;
77220;SDS011;66217;50.004;8.266;2023-05-16T02:35:09;27.35;;;14.38;;
77220;SDS011;66217;50.004;8.266;2023-05-16T02:37:35;30.17;;;16.27;;
77220;SDS011;66217;50.004;8.266;2023-05-16T02:40:01;25.83;;;14.27;;
77220;SDS011;66217;50.004;8.266;2023-05-16T02:42:28;25.83;;;14.93;;
77220;SDS011;66217;50.004;8.266;2023-05-16T02:44:53;25.80;;;13.95;;
77220;SDS011;66217;50.004;8.266;2023-05-16T02:47:19;30.98;;;15.75;;
77220;SDS011;66217;50.004;8.266;2023-05-16T02:49:44;25.63;;;14.85;;
77220;SDS011;66217;50.004;8.266;2023-05-16T02:52:10;28.27;;;14.80;;
77220;SDS011;66217;50.004;8.266;2023-05-16T02:54:36;26.60;;;13.65;;
77220;SDS011;66217;50.004;8.266;2023-05-16T02:57:01;33.85;;;14.40;;
77220;SDS011;66217;50.004;8.266;2023-05-16T02:59:26;32.90;;;14.10;;
77220;SDS011;66217;50.004;8.266;2023-05-16T03:01:52;29.55;;;14.45;;
77220;SDS011;66217;50.004;8.266;2023-05-16T03:04:17;28.40;;;14.52;;
77220;SDS011;66217;50.004;8.266;2023-05-16T03:06:43;26.67;;;13.90;;
77220;SDS011;66217;50.004;8.266;2023-05-16T03:09:08;25.83;;;14.20;;
77220;SDS011;66217;50.004;8.266;2023-05-16T03:11:34;27.83;;;13.73;;
77220;SDS011;66217;50.004;8.266;2023-05-16T03:13:59;27.02;;;13.20;;
77220;SDS011;66217;50.004;8.266;2023-05-16T03:16:25;27.88;;;13.52;;
77220;SDS011;66217;50.004;8.266;2023-05-16T03:18:50;27.83;;;14.82;;
77220;SDS011;66217;50.004;8.266;2023-05-16T03:21:16;25.98;;;14.20;;
77220;SDS011;66217;50.004;8.266;2023-05-16T03:23:43;25.30;;;11.82;;
77220;SDS011;66217;50.004;8.266;2023-05-16T03:26:08;27.48;;;13.02;;
77220;SDS011;66217;50.004;8.266;2023-05-16T03:28:34;24.80;;;12.75;;
77220;SDS011;66217;50.004;8.266;2023-05-16T03:31:01;30.08;;;13.25;;
77220;SDS011;66217;50.004;8.266;2023-05-16T03:33:26;23.80;;;13.10;;
77220;SDS011;66217;50.004;8.266;2023-05-16T03:35:52;25.20;;;12.35;;
77220;SDS011;66217;50.004;8.266;2023-05-16T03:38:17;26.63;;;12.27;;
77220;SDS011;66217;50.004;8.266;2023-05-16T03:40:43;20.40;;;10.90;;
77220;SDS011;66217;50.004;8.266;2023-05-16T03:43:09;18.48;;;10.90;;
77220;SDS011;66217;50.004;8.266;2023-05-16T03:45:34;16.35;;;9.50;;
77220;SDS011;66217;50.004;8.266;2023-05-16T03:48:02;17.73;;;8.30;;
77220;SDS011;66217;50.004;8.266;2023-05-16T03:50:27;16.83;;;9.07;;
77220;SDS011;66217;50.004;8.266;2023-05-16T03:52:53;18.80;;;9.27;;
77220;SDS011;66217;50.004;8.266;2023-05-16T03:55:19;17.58;;;8.85;;
77220;SDS011;66217;50.004;8.266;2023-05-16T03:57:45;15.85;;;8.18;;
77220;SDS011;66217;50.004;8.266;2023-05-16T04:00:12;14.13;;;6.25;;
77220;SDS011;66217;50.004;8.266;2023-05-16T04:02:38;10.10;;;5.93;;
77220;SDS011;66217;50.004;8.266;2023-05-16T04:05:08;9.07;;;5.47;;
77220;SDS011;66217;50.004;8.266;2023-05-16T04:07:34;8.65;;;4.65;;
77220;SDS011;66217;50.004;8.266;2023-05-16T04:10:00;7.90;;;4.38;;
77220;SDS011;66217;50.004;8.266;2023-05-16T04:12:25;8.98;;;4.60;;
77220;SDS011;66217;50.004;8.266;2023-05-16T04:14:51;8.20;;;4.82;;
77220;SDS011;66217;50.004;8.266;2023-05-16T04:17:16;6.85;;;4.68;;
77220;SDS011;66217;50.004;8.266;2023-05-16T04:19:41;7.50;;;4.57;;
77220;SDS011;66217;50.004;8.266;2023-05-16T04:22:07;7.30;;;3.85;;
77220;SDS011;66217;50.004;8.266;2023-05-16T04:24:32;5.85;;;3.28;;
77220;SDS011;66217;50.004;8.266;2023-05-16T04:26:58;3.95;;;2.63;;
77220;SDS011;66217;50.004;8.266;2023-05-16T04:29:23;3.63;;;2.47;;
77220;SDS011;66217;50.004;8.266;2023-05-16T04:31:49;3.97;;;2.50;;
77220;SDS011;66217;50.004;8.266;2023-05-16T04:34:15;5.22;;;2.55;;
77220;SDS011;66217;50.004;8.266;2023-05-16T04:36:42;4.15;;;2.47;;
77220;SDS011;66217;50.004;8.266;2023-05-16T04:39:08;4.22;;;2.75;;
77220;SDS011;66217;50.004;8.266;2023-05-16T04:41:33;3.15;;;2.30;;
77220;SDS011;66217;50.004;8.266;2023-05-16T04:44:00;3.90;;;2.08;;
77220;SDS011;66217;50.004;8.266;2023-05-16T04:46:28;4.28;;;2.30;;
77220;SDS011;66217;50.004;8.266;2023-05-16T04:48:54;3.20;;;1.90;;
77220;SDS011;66217;50.004;8.266;2023-05-16T04:51:19;2.70;;;1.95;;
77220;SDS011;66217;50.004;8.266;2023-05-16T04:53:45;2.33;;;1.63;;
77220;SDS011;66217;50.004;8.266;2023-05-16T04:56:11;4.03;;;1.67;;
77220;SDS011;66217;50.004;8.266;2023-05-16T04:58:37;2.38;;;1.50;;
77220;SDS011;66217;50.004;8.266;2023-05-16T05:01:02;2.88;;;1.70;;
77220;SDS011;66217;50.004;8.266;2023-05-16T05:03:28;4.80;;;1.80;;
77220;SDS011;66217;50.004;8.266;2023-05-16T05:05:53;6.13;;;1.90;;
77220;SDS011;66217;50.004;8.266;2023-05-16T05:08:19;4.30;;;2.17;;
77220;SDS011;66217;50.004;8.266;2023-05-16T05:10:45;3.88;;;2.15;;
77220;SDS011;66217;50.004;8.266;2023-05-16T05:13:10;3.35;;;1.65;;
77220;SDS011;66217;50.004;8.266;2023-05-16T05:15:36;1.77;;;1.40;;
77220;SDS011;66217;50.004;8.266;2023-05-16T05:18:01;1.70;;;1.40;;
77220;SDS011;66217;50.004;8.266;2023-05-16T05:20:27;1.75;;;1.50;;
77220;SDS011;66217;50.004;8.266;2023-05-16T05:22:52;1.65;;;1.50;;
77220;SDS011;66217;50.004;8.266;2023-05-16T05:25:18;1.55;;;1.20;;
77220;SDS011;66217;50.004;8.266;2023-05-16T05:27:43;2.25;;;1.40;;
77220;SDS011;66217;50.004;8.266;2023-05-16T05:30:09;2.03;;;1.80;;
77220;SDS011;66217;50.004;8.266;2023-05-16T05:32:35;1.63;;;1.30;;
77220;SDS011;66217;50.004;8.266;2023-05-16T05:35:00;1.50;;;1.33;;
77220;SDS011;66217;50.004;8.266;2023-05-16T05:37:26;2.30;;;1.38;;
77220;SDS011;66217;50.004;8.266;2023-05-16T05:39:51;5.55;;;1.40;;
77220;SDS011;66217;50.004;8.266;2023-05-16T05:42:17;7.78;;;1.60;;
77220;SDS011;66217;50.004;8.266;2023-05-16T05:44:42;2.40;;;1.48;;
77220;SDS011;66217;50.004;8.266;2023-05-16T05:47:08;2.08;;;1.40;;
77220;SDS011;66217;50.004;8.266;2023-05-16T05:49:33;1.95;;;1.35;;
77220;SDS011;66217;50.004;8.266;2023-05-16T05:52:00;2.78;;;1.20;;
77220;SDS011;66217;50.004;8.266;2023-05-16T05:54:25;2.58;;;1.50;;
77220;SDS011;66217;50.004;8.266;2023-05-16T05:56:51;4.15;;;1.52;;
77220;SDS011;66217;50.004;8.266;2023-05-16T05:59:16;5.63;;;1.40;;
77220;SDS011;66217;50.004;8.266;2023-05-16T06:01:42;2.47;;;1.60;;
77220;SDS011;66217;50.004;8.266;2023-05-16T06:04:10;2.33;;;1.45;;
77220;SDS011;66217;50.004;8.266;2023-05-16T06:06:36;2.97;;;1.60;;
77220;SDS011;66217;50.004;8.266;2023-05-16T06:09:01;3.17;;;1.40;;
77220;SDS011;66217;50.004;8.266;2023-05-16T06:11:27;5.18;;;1.40;;
77220;SDS011;66217;50.004;8.266;2023-05-16T06:13:53;6.18;;;2.00;;
77220;SDS011;66217;50.004;8.266;2023-05-16T06:16:18;2.00;;;1.52;;
77220;SDS011;66217;50.004;8.266;2023-05-16T06:18:44;2.78;;;1.70;;
77220;SDS011;66217;50.004;8.266;2023-05-16T06:21:09;4.10;;;1.67;;
77220;SDS011;66217;50.004;8.266;2023-05-16T06:23:35;3.38;;;1.83;;
77220;SDS011;66217;50.004;8.266;2023-05-16T06:26:01;4.65;;;1.58;;
77220;SDS011;66217;50.004;8.266;2023-05-16T06:28:27;3.85;;;1.50;;
77220;SDS011;66217;50.004;8.266;2023-05-16T06:30:53;1.40;;;1.30;;
77220;SDS011;66217;50.004;8.266;2023-05-16T06:33:19;1.40;;;1.30;;
77220;SDS011;66217;50.004;8.266;2023-05-16T06:35:44;3.72;;;1.48;;
77220;SDS011;66217;50.004;8.266;2023-05-16T06:38:10;1.90;;;1.50;;
77220;SDS011;66217;50.004;8.266;2023-05-16T06:40:35;1.30;;;1.20;;
77220;SDS011;66217;50.004;8.266;2023-05-16T06:43:01;1.45;;;1.27;;
77220;SDS011;66217;50.004;8.266;2023-05-16T06:45:27;1.58;;;1.30;;
77220;SDS011;66217;50.004;8.266;2023-05-16T06:47:53;1.50;;;1.30;;
77220;SDS011;66217;50.004;8.266;2023-05-16T06:50:20;2.97;;;1.23;;
77220;SDS011;66217;50.004;8.266;2023-05-16T06:52:45;1.20;;;1.13;;
77220;SDS011;66217;50.004;8.266;2023-05-16T06:55:10;1.85;;;1.40;;
77220;SDS011;66217;50.004;8.266;2023-05-16T06:57:36;3.03;;;1.10;;
77220;SDS011;66217;50.004;8.266;2023-05-16T07:00:02;1.35;;;1.25;;
77220;SDS011;66217;50.004;8.266;2023-05-16T07:02:27;3.15;;;1.30;;
77220;SDS011;66217;50.004;8.266;2023-05-16T07:04:53;2.10;;;1.10;;
77220;SDS011;66217;50.004;8.266;2023-05-16T07:07:19;0.90;;;0.90;;
77220;SDS011;66217;50.004;8.266;2023-05-16T07:09:44;2.60;;;1.50;;
77220;SDS011;66217;50.004;8.266;2023-05-16T07:12:10;3.63;;;1.42;;
77220;SDS011;66217;50.004;8.266;2023-05-16T07:14:35;2.22;;;1.50;;
77220;SDS011;66217;50.004;8.266;2023-05-16T07:17:01;2.28;;;1.38;;
77220;SDS011;66217;50.004;8.266;2023-05-16T07:19:26;3.58;;;1.65;;
77220;SDS011;66217;50.004;8.266;2023-05-16T07:21:52;2.22;;;1.20;;
77220;SDS011;66217;50.004;8.266;2023-05-16T07:24:18;1.52;;;1.20;;
77220;SDS011;66217;50.004;8.266;2023-05-16T07:26:43;1.30;;;1.10;;
77220;SDS011;66217;50.004;8.266;2023-05-16T07:29:09;5.38;;;1.05;;
77220;SDS011;66217;50.004;8.266;2023-05-16T07:31:34;1.90;;;1.15;;
77220;SDS011;66217;50.004;8.266;2023-05-16T07:34:00;2.13;;;1.05;;
77220;SDS011;66217;50.004;8.266;2023-05-16T07:36:25;0.88;;;0.88;;
77220;SDS011;66217;50.004;8.266;2023-05-16T07:38:51;6.47;;;1.08;;
77220;SDS011;66217;50.004;8.266;2023-05-16T07:41:16;4.85;;;1.10;;
77220;SDS011;66217;50.004;8.266;2023-05-16T07:43:42;0.95;;;0.95;;
77220;SDS011;66217;50.004;8.266;2023-05-16T07:46:07;0.98;;;0.93;;
77220;SDS011;66217;50.004;8.266;2023-05-16T07:48:34;1.10;;;1.00;;
77220;SDS011;66217;50.004;8.266;2023-05-16T07:50:59;1.60;;;1.20;;
77220;SDS011;66217;50.004;8.266;2023-05-16T07:53:25;1.35;;;1.10;;
77220;SDS011;66217;50.004;8.266;2023-05-16T07:55:50;6.53;;;1.00;;
77220;SDS011;66217;50.004;8.266;2023-05-16T07:58:16;2.22;;;0.77;;
77220;SDS011;66217;50.004;8.266;2023-05-16T08:00:41;5.50;;;1.20;;
77220;SDS011;66217;50.004;8.266;2023-05-16T08:03:07;3.10;;;1.20;;
77220;SDS011;66217;50.004;8.266;2023-05-16T08:05:32;4.20;;;1.33;;
77220;SDS011;66217;50.004;8.266;2023-05-16T08:07:58;1.65;;;1.20;;
77220;SDS011;66217;50.004;8.266;2023-05-16T08:10:23;0.90;;;0.90;;
77220;SDS011;66217;50.004;8.266;2023-05-16T08:12:49;1.88;;;1.00;;
77220;SDS011;66217;50.004;8.266;2023-05-16T08:15:19;1.58;;;1.02;;
77220;SDS011;66217;50.004;8.266;2023-05-16T08:17:45;1.10;;;1.02;;
77220;SDS011;66217;50.004;8.266;2023-05-16T08:20:11;1.17;;;0.90;;
77220;SDS011;66217;50.004;8.266;2023-05-16T08:22:37;2.78;;;1.10;;
77220;SDS011;66217;50.004;8.266;2023-05-16T08:25:02;2.55;;;1.10;;
77220;SDS011;66217;50.004;8.266;2023-05-16T08:27:28;1.55;;;1.00;;
77220;SDS011;66217;50.004;8.266;2023-05-16T08:29:53;1.23;;;1.13;;
77220;SDS011;66217;50.004;8.266;2023-05-16T08:32:20;2.13;;;1.05;;
77220;SDS011;66217;50.004;8.266;2023-05-16T08:34:46;0.90;;;0.90;;
77220;SDS011;66217;50.004;8.266;2023-05-16T08:37:11;2.97;;;1.15;;
77220;SDS011;66217;50.004;8.266;2023-05-16T08:39:37;1.02;;;0.95;;
77220;SDS011;66217;50.004;8.266;2023-05-16T08:42:03;3.00;;;1.00;;
77220;SDS011;66217;50.004;8.266;2023-05-16T08:44:29;1.55;;;1.05;;
77220;SDS011;66217;50.004;8.266;2023-05-16T08:46:55;0.90;;;0.88;;
77220;SDS011;66217;50.004;8.266;2023-05-16T08:49:21;1.48;;;1.20;;
77220;SDS011;66217;50.004;8.266;2023-05-16T08:51:47;1.38;;;0.95;;
77220;SDS011;66217;50.004;8.266;2023-05-16T08:54:13;1.88;;;0.88;;
77220;SDS011;66217;50.004;8.266;2023-05-16T08:56:40;1.83;;;1.10;;
77220;SDS011;66217;50.004;8.266;2023-05-16T08:59:06;4.18;;;1.30;;
77220;SDS011;66217;50.004;8.266;2023-05-16T09:01:31;2.65;;;1.20;;
77220;SDS011;66217;50.004;8.266;2023-05-16T09:03:58;1.23;;;1.00;;
77220;SDS011;66217;50.004;8.266;2023-05-16T09:06:24;1.20;;;1.10;;
77220;SDS011;66217;50.004;8.266;2023-05-16T09:08:50;2.28;;;1.20;;
77220;SDS011;66217;50.004;8.266;2023-05-16T09:11:17;2.45;;;1.42;;
77220;SDS011;66217;50.004;8.266;2023-05-16T09:13:43;3.20;;;1.52;;
77220;SDS011;66217;50.004;8.266;2023-05-16T09:16:10;2.58;;;1.17;;
77220;SDS011;66217;50.004;8.266;2023-05-16T09:18:39;2.40;;;1.40;;
77220;SDS011;66217;50.004;8.266;2023-05-16T09:21:08;4.22;;;1.50;;
77220;SDS011;66217;50.004;8.266;2023-05-16T09:23:36;3.50;;;1.40;;
77220;SDS011;66217;50.004;8.266;2023-05-16T09:26:02;7.70;;;2.10;;
77220;SDS011;66217;50.004;8.266;2023-05-16T09:28:31;4.10;;;1.85;;
77220;SDS011;66217;50.004;8.266;2023-05-16T09:30:56;3.85;;;1.55;;
77220;SDS011;66217;50.004;8.266;2023-05-16T09:33:26;3.85;;;2.10;;
77220;SDS011;66217;50.004;8.266;2023-05-16T09:35:56;6.38;;;1.88;;
77220;SDS011;66217;50.004;8.266;2023-05-16T09:38:23;5.80;;;2.13;;
77220;SDS011;66217;50.004;8.266;2023-05-16T09:40:51;6.57;;;1.88;;
77220;SDS011;66217;50.004;8.266;2023-05-16T09:43:16;5.75;;;1.90;;
77220;SDS011;66217;50.004;8.266;2023-05-16T09:45:46;4.78;;;1.80;;
77220;SDS011;66217;50.004;8.266;2023-05-16T09:48:12;6.93;;;1.90;;
77220;SDS011;66217;50.004;8.266;2023-05-16T09:50:38;7.43;;;2.05;;
77220;SDS011;66217;50.004;8.266;2023-05-16T09:53:04;6.47;;;2.10;;
77220;SDS011;66217;50.004;8.266;2023-05-16T09:55:30;11.50;;;2.08;;
77220;SDS011;66217;50.004;8.266;2023-05-16T09:57:56;6.50;;;2.38;;
77220;SDS011;66217;50.004;8.266;2023-05-16T10:00:22;4.63;;;1.90;;
77220;SDS011;66217;50.004;8.266;2023-05-16T10:02:53;7.22;;;1.90;;
77220;SDS011;66217;50.004;8.266;2023-05-16T10:05:21;7.90;;;2.03;;
77220;SDS011;66217;50.004;8.266;2023-05-16T10:07:48;8.15;;;1.80;;
77220;SDS011;66217;50.004;8.266;2023-05-16T10:10:14;8.15;;;2.03;;
77220;SDS011;66217;50.004;8.266;2023-05-16T10:12:40;9.90;;;2.65;;
77220;SDS011;66217;50.004;8.266;2023-05-16T10:15:06;8.90;;;2.03;;
77220;SDS011;66217;50.004;8.266;2023-05-16T10:17:33;10.63;;;1.90;;
77220;SDS011;66217;50.004;8.266;2023-05-16T10:20:00;12.43;;;2.35;;
77220;SDS011;66217;50.004;8.266;2023-05-16T10:22:30;6.78;;;2.30;;
77220;SDS011;66217;50.004;8.266;2023-05-16T10:25:08;5.22;;;1.63;;
77220;SDS011;66217;50.004;8.266;2023-05-16T10:27:40;8.18;;;2.08;;
77220;SDS011;66217;50.004;8.266;2023-05-16T10:30:06;9.00;;;1.90;;
77220;SDS011;66217;50.004;8.266;2023-05-16T10:32:33;4.93;;;1.77;;
77220;SDS011;66217;50.004;8.266;2023-05-16T10:35:03;10.10;;;1.80;;
77220;SDS011;66217;50.004;8.266;2023-05-16T10:37:29;6.07;;;1.98;;
77220;SDS011;66217;50.004;8.266;2023-05-16T10:39:56;8.43;;;2.42;;
77220;SDS011;66217;50.004;8.266;2023-05-16T10:42:23;7.65;;;2.05;;
77220;SDS011;66217;50.004;8.266;2023-05-16T10:44:48;7.80;;;1.95;;
77220;SDS011;66217;50.004;8.266;2023-05-16T10:47:18;8.25;;;1.95;;
77220;SDS011;66217;50.004;8.266;2023-05-16T10:49:44;10.05;;;2.63;;
77220;SDS011;66217;50.004;8.266;2023-05-16T10:52:10;10.60;;;2.20;;
77220;SDS011;66217;50.004;8.266;2023-05-16T10:54:37;7.07;;;1.70;;
77220;SDS011;66217;50.004;8.266;2023-05-16T10:59:40;8.80;;;2.20;;
77220;SDS011;66217;50.004;8.266;2023-05-16T11:02:19;8.45;;;2.42;;
77220;SDS011;66217;50.004;8.266;2023-05-16T11:04:50;14.45;;;3.67;;
77220;SDS011;66217;50.004;8.266;2023-05-16T11:07:17;9.65;;;2.47;;
77220;SDS011;66217;50.004;8.266;2023-05-16T11:09:43;7.95;;;2.22;;
77220;SDS011;66217;50.004;8.266;2023-05-16T11:12:09;7.40;;;2.58;;
77220;SDS011;66217;50.004;8.266;2023-05-16T11:14:39;5.00;;;2.00;;
77220;SDS011;66217;50.004;8.266;2023-05-16T11:17:11;8.25;;;2.05;;
77220;SDS011;66217;50.004;8.266;2023-05-16T11:27:23;7.03;;;1.73;;
77220;SDS011;66217;50.004;8.266;2023-05-16T11:30:14;11.75;;;2.22;;
77220;SDS011;66217;50.004;8.266;2023-05-16T11:32:42;6.18;;;1.70;;
77220;SDS011;66217;50.004;8.266;2023-05-16T11:35:12;7.65;;;1.80;;
77220;SDS011;66217;50.004;8.266;2023-05-16T11:37:39;10.18;;;1.85;;
77220;SDS011;66217;50.004;8.266;2023-05-16T11:40:05;7.97;;;2.08;;
77220;SDS011;66217;50.004;8.266;2023-05-16T11:42:36;5.28;;;1.60;;
77220;SDS011;66217;50.004;8.266;2023-05-16T11:45:15;5.35;;;1.77;;
77220;SDS011;66217;50.004;8.266;2023-05-16T11:47:43;8.68;;;1.45;;
77220;SDS011;66217;50.004;8.266;2023-05-16T11:50:10;5.15;;;1.48;;
77220;SDS011;66217;50.004;8.266;2023-05-16T11:52:37;9.77;;;1.98;;
77220;SDS011;66217;50.004;8.266;2023-05-16T11:55:04;8.57;;;1.92;;
77220;SDS011;66217;50.004;8.266;2023-05-16T11:57:31;4.68;;;1.75;;
77220;SDS011;66217;50.004;8.266;2023-05-16T12:00:04;2.20;;;1.38;;
77220;SDS011;66217;50.004;8.266;2023-05-16T12:02:35;7.80;;;1.70;;
77220;SDS011;66217;50.004;8.266;2023-05-16T12:05:05;4.93;;;1.50;;
77220;SDS011;66217;50.004;8.266;2023-05-16T12:07:33;6.85;;;1.58;;
77220;SDS011;66217;50.004;8.266;2023-05-16T12:10:03;9.35;;;2.17;;
77220;SDS011;66217;50.004;8.266;2023-05-16T12:12:33;10.43;;;1.90;;
77220;SDS011;66217;50.004;8.266;2023-05-16T12:14:59;6.18;;;1.58;;
77220;SDS011;66217;50.004;8.266;2023-05-16T12:17:25;6.55;;;1.55;;
77220;SDS011;66217;50.004;8.266;2023-05-16T12:19:51;5.65;;;1.60;;
77220;SDS011;66217;50.004;8.266;2023-05-16T12:22:16;4.75;;;1.50;;
77220;SDS011;66217;50.004;8.266;2023-05-16T12:24:42;3.45;;;1.50;;
77220;SDS011;66217;50.004;8.266;2023-05-16T12:27:08;3.38;;;1.70;;
77220;SDS011;66217;50.004;8.266;2023-05-16T12:29:33;5.18;;;1.65;;
77220;SDS011;66217;50.004;8.266;2023-05-16T12:31:59;6.00;;;1.55;;
77220;SDS011;66217;50.004;8.266;2023-05-16T12:34:27;5.25;;;1.70;;
77220;SDS011;66217;50.004;8.266;2023-05-16T12:36:53;4.40;;;1.52;;
77220;SDS011;66217;50.004;8.266;2023-05-16T12:39:19;7.20;;;1.70;;
77220;SDS011;66217;50.004;8.266;2023-05-16T12:41:45;3.78;;;1.67;;
77220;SDS011;66217;50.004;8.266;2023-05-16T12:44:17;4.05;;;1.60;;
77220;SDS011;66217;50.004;8.266;2023-05-16T12:46:44;7.88;;;2.53;;
77220;SDS011;66217;50.004;8.266;2023-05-16T12:49:19;4.57;;;1.30;;
77220;SDS011;66217;50.004;8.266;2023-05-16T12:51:49;8.57;;;1.60;;
77220;SDS011;66217;50.004;8.266;2023-05-16T12:56:41;4.30;;;1.77;;
77220;SDS011;66217;50.004;8.266;2023-05-16T12:59:08;4.82;;;1.25;;
77220;SDS011;66217;50.004;8.266;2023-05-16T13:01:34;3.47;;;1.20;;
77220;SDS011;66217;50.004;8.266;2023-05-16T13:04:00;4.30;;;1.40;;
77220;SDS011;66217;50.004;8.266;2023-05-16T13:06:26;6.25;;;1.35;;
77220;SDS011;66217;50.004;8.266;2023-05-16T13:08:52;12.90;;;1.65;;
77220;SDS011;66217;50.004;8.266;2023-05-16T13:11:18;6.50;;;1.42;;
77220;SDS011;66217;50.004;8.266;2023-05-16T13:13:43;6.95;;;1.70;;
77220;SDS011;66217;50.004;8.266;2023-05-16T13:16:09;5.85;;;1.80;;
77220;SDS011;66217;50.004;8.266;2023-05-16T13:18:34;5.07;;;1.73;;
77220;SDS011;66217;50.004;8.266;2023-05-16T13:21:01;5.65;;;1.60;;
77220;SDS011;66217;50.004;8.266;2023-05-16T13:23:27;3.38;;;1.20;;
77220;SDS011;66217;50.004;8.266;2023-05-16T13:25:53;6.82;;;1.35;;
77220;SDS011;66217;50.004;8.266;2023-05-16T13:28:19;4.68;;;1.45;;
77220;SDS011;66217;50.004;8.266;2023-05-16T13:30:45;5.95;;;1.63;;
77220;SDS011;66217;50.004;8.266;2023-05-16T13:33:10;7.90;;;1.52;;
77220;SDS011;66217;50.004;8.266;2023-05-16T13:35:36;4.38;;;1.40;;
77220;SDS011;66217;50.004;8.266;2023-05-16T13:38:02;6.85;;;1.50;;
77220;SDS011;66217;50.004;8.266;2023-05-16T13:40:28;9.18;;;1.83;;
77220;SDS011;66217;50.004;8.266;2023-05-16T13:42:54;6.13;;;1.70;;
77220;SDS011;66217;50.004;8.266;2023-05-16T13:45:19;3.42;;;1.35;;
77220;SDS011;66217;50.004;8.266;2023-05-16T13:47:45;6.20;;;2.08;;
77220;SDS011;66217;50.004;8.266;2023-05-16T13:50:10;6.78;;;1.58;;
77220;SDS011;66217;50.004;8.266;2023-05-16T13:52:36;6.93;;;1.90;;
77220;SDS011;66217;50.004;8.266;2023-05-16T13:55:02;10.40;;;1.92;;
77220;SDS011;66217;50.004;8.266;2023-05-16T13:57:28;5.97;;;1.52;;
77220;SDS011;66217;50.004;8.266;2023-05-16T13:59:54;7.25;;;1.60;;
77220;SDS011;66217;50.004;8.266;2023-05-16T14:02:19;4.75;;;1.33;;
77220;SDS011;66217;50.004;8.266;2023-05-16T14:04:45;4.07;;;1.48;;
77220;SDS011;66217;50.004;8.266;2023-05-16T14:07:10;5.05;;;1.35;;
77220;SDS011;66217;50.004;8.266;2023-05-16T14:09:36;4.47;;;1.52;;
77220;SDS011;66217;50.004;8.266;2023-05-16T14:12:06;5.15;;;1.38;;
77220;SDS011;66217;50.004;8.266;2023-05-16T14:14:32;3.75;;;1.27;;
77220;SDS011;66217;50.004;8.266;2023-05-16T14:16:58;5.07;;;1.42;;
77220;SDS011;66217;50.004;8.266;2023-05-16T14:19:24;5.97;;;1.50;;
77220;SDS011;66217;50.004;8.266;2023-05-16T14:21:49;8.88;;;1.83;;
77220;SDS011;66217;50.004;8.266;2023-05-16T14:24:15;6.85;;;1.65;;
77220;SDS011;66217;50.004;8.266;2023-05-16T14:26:40;5.15;;;1.55;;
77220;SDS011;66217;50.004;8.266;2023-05-16T14:29:06;5.18;;;1.75;;
77220;SDS011;66217;50.004;8.266;2023-05-16T14:31:31;8.80;;;1.50;;
77220;SDS011;66217;50.004;8.266;2023-05-16T14:33:57;4.95;;;1.60;;
77220;SDS011;66217;50.004;8.266;2023-05-16T14:36:23;9.70;;;2.00;;
77220;SDS011;66217;50.004;8.266;2023-05-16T14:38:49;8.38;;;2.08;;
77220;SDS011;66217;50.004;8.266;2023-05-16T14:41:14;6.32;;;1.95;;
77220;SDS011;66217;50.004;8.266;2023-05-16T14:43:40;6.68;;;1.70;;
77220;SDS011;66217;50.004;8.266;2023-05-16T14:46:06;5.13;;;1.77;;
77220;SDS011;66217;50.004;8.266;2023-05-16T14:48:31;3.65;;;1.33;;
77220;SDS011;66217;50.004;8.266;2023-05-16T14:50:57;7.35;;;1.83;;
77220;SDS011;66217;50.004;8.266;2023-05-16T14:53:23;5.15;;;1.60;;
77220;SDS011;66217;50.004;8.266;2023-05-16T14:55:48;4.53;;;1.35;;
77220;SDS011;66217;50.004;8.266;2023-05-16T14:58:16;6.22;;;1.70;;
77220;SDS011;66217;50.004;8.266;2023-05-16T15:00:41;7.63;;;2.00;;
77220;SDS011;66217;50.004;8.266;2023-05-16T15:03:07;13.38;;;2.10;;
77220;SDS011;66217;50.004;8.266;2023-05-16T15:05:32;9.75;;;2.75;;